createdAt,value
2018-06-08T00:01:05.417Z,19.10
2018-06-08T00:06:57.273Z,19.30
2018-06-08T00:09:48.259Z,19.20
2018-06-08T00:12:42.065Z,18.90
2018-06-08T00:15:32.953Z,18.80
2018-06-08T00:18:18.932Z,18.90
2018-06-08T00:21:12.514Z,19.10
2018-06-08T00:23:59.267Z,19.20
2018-06-08T00:26:58.089Z,19.10
2018-06-08T00:29:46.852Z,19.10
2018-06-08T00:32:24.395Z,18.90
2018-06-08T00:34:54.272Z,18.70
2018-06-08T00:37:24.468Z,18.50
2018-06-08T00:44:58.712Z,18.30
2018-06-08T00:47:28.365Z,18.50
2018-06-08T00:49:58.071Z,18.50
2018-06-08T00:52:28.175Z,18.30
2018-06-08T00:59:58.181Z,18.30
2018-06-08T01:02:27.953Z,18.60
2018-06-08T01:04:57.776Z,18.60
2018-06-08T01:07:27.620Z,18.70
2018-06-08T01:09:57.386Z,18.70
2018-06-08T01:12:27.562Z,18.60
2018-06-08T01:14:57.914Z,18.80
2018-06-08T01:17:28.739Z,18.80
2018-06-08T01:22:31.202Z,18.70
2018-06-08T01:25:01.815Z,18.60
2018-06-08T01:27:31.653Z,18.60
2018-06-08T01:30:02.980Z,18.70
2018-06-08T01:32:32.878Z,18.70
2018-06-08T01:35:03.111Z,18.70
2018-06-08T01:37:32.988Z,18.70
2018-06-08T01:40:03.333Z,18.60
2018-06-08T01:42:33.001Z,18.60
2018-06-08T01:45:02.646Z,18.50
2018-06-08T01:47:32.486Z,18.40
2018-06-08T01:50:02.271Z,18.50
2018-06-08T01:52:32.133Z,18.40
2018-06-08T01:55:02.190Z,18.30
2018-06-08T01:57:31.918Z,18.40
2018-06-08T02:00:04.764Z,18.40
2018-06-08T02:02:35.388Z,18.40
2018-06-08T02:05:05.082Z,18.50
2018-06-08T02:07:35.276Z,18.50
2018-06-08T02:10:05.346Z,18.30
2018-06-08T02:12:35.562Z,18.30
2018-06-08T02:17:40.294Z,18.30
2018-06-08T02:20:10.172Z,18.40
2018-06-08T02:22:40.507Z,18.30
2018-06-08T02:25:10.287Z,18.40
2018-06-08T02:27:40.120Z,18.50
2018-06-08T02:30:10.035Z,18.40
2018-06-08T02:32:39.864Z,18.40
2018-06-08T02:35:09.560Z,18.30
2018-06-08T02:37:39.364Z,18.30
2018-06-08T02:40:09.037Z,18.10
2018-06-08T02:42:38.827Z,18.20
2018-06-08T02:45:08.677Z,18.10
2018-06-08T02:47:38.430Z,18.10
2018-06-08T02:50:08.314Z,18.10
2018-06-08T02:55:07.632Z,18.00
2018-06-08T03:00:07.910Z,18.10
2018-06-08T03:02:38.160Z,18.20
2018-06-08T03:07:43.106Z,17.90
2018-06-08T03:10:12.908Z,17.90
2018-06-08T03:12:42.725Z,18.00
2018-06-08T03:15:12.474Z,17.70
2018-06-08T03:17:42.278Z,17.50
2018-06-08T03:22:55.099Z,17.70
2018-06-08T03:25:29.501Z,17.90
2018-06-08T03:28:08.955Z,17.80
2018-06-08T03:30:50.021Z,17.50
2018-06-08T03:33:27.791Z,17.50
2018-06-08T03:36:13.319Z,17.60
2018-06-08T03:38:48.635Z,17.80
2018-06-08T03:41:25.140Z,17.90
2018-06-08T03:44:08.192Z,17.70
2018-06-08T03:46:46.720Z,17.60
2018-06-08T03:49:25.107Z,17.40
2018-06-08T03:52:05.314Z,17.20
2018-06-08T03:54:45.208Z,17.60
2018-06-08T03:57:25.413Z,17.50
2018-06-08T04:00:06.313Z,17.40
2018-06-08T04:02:44.090Z,17.90
2018-06-08T04:05:22.103Z,18.40
2018-06-08T04:07:58.832Z,18.60
2018-06-08T04:10:32.676Z,18.70
2018-06-08T04:13:09.018Z,18.70
2018-06-08T04:15:50.443Z,18.90
2018-06-08T04:18:35.023Z,18.80
2018-06-08T04:21:11.800Z,19.00
2018-06-08T04:23:50.773Z,19.10
2018-06-08T04:26:30.415Z,19.20
2018-06-08T04:29:09.287Z,19.00
2018-06-08T04:31:52.577Z,19.30
2018-06-08T04:34:31.908Z,19.50
2018-06-08T04:37:15.149Z,19.40
2018-06-08T04:39:48.044Z,19.60
2018-06-08T04:42:29.585Z,19.70
2018-06-08T04:45:06.076Z,19.80
2018-06-08T04:47:42.166Z,19.50
2018-06-08T04:50:19.072Z,19.40
2018-06-08T04:52:51.447Z,19.80
2018-06-08T04:55:30.962Z,20.00
2018-06-08T04:58:06.431Z,20.30
2018-06-08T05:00:40.937Z,20.60
2018-06-08T05:03:20.197Z,20.80
2018-06-08T05:05:54.029Z,20.80
2018-06-08T05:08:39.778Z,20.80
2018-06-08T05:11:18.836Z,21.00
2018-06-08T05:13:53.461Z,21.20
2018-06-08T05:16:35.165Z,21.40
2018-06-08T05:19:17.043Z,21.30
2018-06-08T05:21:53.823Z,20.90
2018-06-08T05:24:30.527Z,21.10
2018-06-08T05:27:07.557Z,21.40
2018-06-08T05:29:48.756Z,21.60
2018-06-08T05:32:22.240Z,22.10
2018-06-08T05:34:58.839Z,22.10
2018-06-08T05:37:37.122Z,22.30
2018-06-08T05:40:11.863Z,22.60
2018-06-08T05:45:30.747Z,22.50
2018-06-08T05:48:15.415Z,22.50
2018-06-08T05:56:06.403Z,22.70
2018-06-08T05:58:43.633Z,23.10
2018-06-08T06:01:22.391Z,23.10
2018-06-08T06:03:59.537Z,22.80
2018-06-08T06:09:08.178Z,22.50
2018-06-08T06:11:47.031Z,22.70
2018-06-08T06:14:25.915Z,22.90
2018-06-08T06:17:05.740Z,22.80
2018-06-08T06:19:46.570Z,22.40
2018-06-08T06:22:27.311Z,22.30
2018-06-08T06:33:08.253Z,22.00
2018-06-08T06:35:52.237Z,21.60
2018-06-08T06:38:32.475Z,21.70
2018-06-08T06:41:06.817Z,21.90
2018-06-08T06:46:29.252Z,22.30
2018-06-08T06:49:08.031Z,22.90
2018-06-08T06:51:43.158Z,23.00
2018-06-08T06:54:24.979Z,23.40
2018-06-08T06:59:42.970Z,24.00
2018-06-08T07:02:26.718Z,24.00
2018-06-08T07:05:06.528Z,23.70
2018-06-08T07:07:47.139Z,23.70
2018-06-08T07:13:03.493Z,23.70
2018-06-08T07:15:44.816Z,23.40
2018-06-08T07:18:22.585Z,22.90
2018-06-08T07:21:04.792Z,23.20
2018-06-08T07:23:40.443Z,23.30
2018-06-08T07:26:17.888Z,23.60
2018-06-08T07:28:53.401Z,24.00
2018-06-08T07:31:31.281Z,24.30
2018-06-08T07:34:10.405Z,24.30
2018-06-08T07:36:48.440Z,24.50
2018-06-08T07:39:30.817Z,24.40
2018-06-08T07:42:05.096Z,23.80
2018-06-08T07:44:44.866Z,24.40
2018-06-08T07:47:27.159Z,24.70
2018-06-08T07:50:07.968Z,24.90
2018-06-08T07:52:50.103Z,24.80
2018-06-08T07:55:24.997Z,24.90
2018-06-08T07:58:07.729Z,24.90
2018-06-08T08:00:49.620Z,24.90
2018-06-08T08:03:24.924Z,25.10
2018-06-08T08:06:08.128Z,25.00
2018-06-08T08:11:28.648Z,24.70
2018-06-08T08:14:12.011Z,24.70
2018-06-08T08:19:30.281Z,24.50
2018-06-08T08:22:08.768Z,24.80
2018-06-08T08:24:42.852Z,25.20
2018-06-08T08:27:22.306Z,25.10
2018-06-08T08:30:10.837Z,25.60
2018-06-08T08:35:29.034Z,24.90
2018-06-08T08:40:42.668Z,25.50
2018-06-08T08:43:19.335Z,25.10
2018-06-08T08:45:56.455Z,25.40
2018-06-08T08:48:37.054Z,25.50
2018-06-08T08:51:15.967Z,25.10
2018-06-08T08:53:52.995Z,25.40
2018-06-08T08:56:30.377Z,25.90
2018-06-08T08:59:08.180Z,25.90
2018-06-08T09:01:45.393Z,25.80
2018-06-08T09:04:20.789Z,26.10
2018-06-08T09:06:57.912Z,26.40
2018-06-08T09:09:37.945Z,26.60
2018-06-08T09:12:17.813Z,26.60
2018-06-08T09:14:53.788Z,26.30
2018-06-08T09:17:28.666Z,26.60
2018-06-08T09:20:04.801Z,26.40
2018-06-08T09:22:43.615Z,26.50
2018-06-08T09:25:24.654Z,26.80
2018-06-08T09:28:04.709Z,27.30
2018-06-08T09:33:19.804Z,27.00
2018-06-08T09:35:59.604Z,27.10
2018-06-08T09:38:43.733Z,27.30
2018-06-08T09:41:21.515Z,26.90
2018-06-08T09:44:06.205Z,27.10
2018-06-08T09:46:48.537Z,27.00
2018-06-08T09:49:27.676Z,27.10
2018-06-08T09:52:05.196Z,27.40
2018-06-08T09:54:45.988Z,27.50
2018-06-08T09:57:26.239Z,27.50
2018-06-08T10:00:03.112Z,27.60
2018-06-08T10:02:51.308Z,28.00
2018-06-08T10:05:38.153Z,28.00
2018-06-08T10:08:20.656Z,28.10
2018-06-08T10:16:14.855Z,28.30
2018-06-08T10:18:57.480Z,28.40
2018-06-08T10:21:37.565Z,28.50
2018-06-08T10:24:18.686Z,28.50
2018-06-08T10:27:02.549Z,28.10
2018-06-08T10:35:00.584Z,28.50
2018-06-08T10:37:37.583Z,28.80
2018-06-08T10:42:53.134Z,27.90
2018-06-08T10:45:37.303Z,28.10
2018-06-08T10:48:15.440Z,28.50
2018-06-08T10:50:59.313Z,28.80
2018-06-08T10:53:35.043Z,29.00
2018-06-08T10:56:14.795Z,29.00
2018-06-08T10:58:50.772Z,28.80
2018-06-08T11:01:36.977Z,29.00
2018-06-08T11:04:15.816Z,29.10
2018-06-08T11:06:58.553Z,29.20
2018-06-08T11:09:37.790Z,29.30
2018-06-08T11:12:20.314Z,28.90
2018-06-08T11:17:38.889Z,28.70
2018-06-08T11:20:15.255Z,28.40
2018-06-08T11:22:53.321Z,28.70
2018-06-08T11:25:29.402Z,29.10
2018-06-08T11:30:41.321Z,29.30
2018-06-08T11:36:01.013Z,28.50
2018-06-08T11:38:38.919Z,28.90
2018-06-08T11:41:18.901Z,29.30
2018-06-08T11:43:57.723Z,29.40
2018-06-08T11:46:34.497Z,29.20
2018-06-08T11:49:15.014Z,29.30
2018-06-08T11:51:57.189Z,29.30
2018-06-08T11:57:24.282Z,28.50
2018-06-08T12:00:01.945Z,28.80
2018-06-08T12:02:39.331Z,29.10
2018-06-08T12:05:31.004Z,29.50
2018-06-08T12:08:14.050Z,29.60
2018-06-08T12:10:48.577Z,29.90
2018-06-08T12:13:30.435Z,30.30
2018-06-08T12:18:54.515Z,29.90
2018-06-08T12:21:32.714Z,29.80
2018-06-08T12:24:11.107Z,30.10
2018-06-08T12:29:25.876Z,30.00
2018-06-08T12:32:06.620Z,30.10
2018-06-08T12:34:41.989Z,30.20
2018-06-08T12:39:53.729Z,30.20
2018-06-08T12:45:19.189Z,30.60
2018-06-08T12:47:59.755Z,29.70
2018-06-08T12:50:39.938Z,29.80
2018-06-08T12:53:17.757Z,29.80
2018-06-08T12:55:55.434Z,29.90
2018-06-08T12:58:43.919Z,30.10
2018-06-08T13:01:22.706Z,30.40
2018-06-08T13:03:56.977Z,30.70
2018-06-08T13:06:32.867Z,30.40
2018-06-08T13:09:13.213Z,30.00
2018-06-08T13:11:50.510Z,30.20
2018-06-08T13:14:27.331Z,30.30
2018-06-08T13:19:42.521Z,30.60
2018-06-08T13:24:57.465Z,30.70
2018-06-08T13:27:37.947Z,30.30
2018-06-08T13:30:17.768Z,30.30
2018-06-08T13:32:53.813Z,29.80
2018-06-08T13:38:14.119Z,28.90
2018-06-08T13:40:54.926Z,29.10
2018-06-08T13:43:39.147Z,29.30
2018-06-08T13:52:15.220Z,29.00
2018-06-08T13:54:52.002Z,29.70
2018-06-08T13:57:32.464Z,29.90
2018-06-08T14:00:10.749Z,30.30
2018-06-08T14:02:52.008Z,30.10
2018-06-08T14:05:29.783Z,30.00
2018-06-08T14:08:15.528Z,30.00
2018-06-08T14:10:53.625Z,29.70
2018-06-08T14:13:36.366Z,29.50
2018-06-08T14:16:16.535Z,29.50
2018-06-08T14:18:54.204Z,29.40
2018-06-08T14:24:17.384Z,28.70
2018-06-08T14:26:55.960Z,29.30
2018-06-08T14:29:33.681Z,29.60
2018-06-08T14:32:13.669Z,29.50
2018-06-08T14:34:51.783Z,29.70
2018-06-08T14:37:33.776Z,29.20
2018-06-08T14:40:10.535Z,29.10
2018-06-08T14:42:46.108Z,29.30
2018-06-08T14:45:23.352Z,29.30
2018-06-08T14:48:00.432Z,29.20
2018-06-08T14:50:38.542Z,28.90
2018-06-08T14:53:12.908Z,28.60
2018-06-08T14:55:52.500Z,28.60
2018-06-08T14:58:36.182Z,28.60
2018-06-08T15:01:16.198Z,28.40
2018-06-08T15:04:02.795Z,28.20
2018-06-08T15:06:43.976Z,28.20
2018-06-08T15:09:18.100Z,28.00
2018-06-08T15:11:54.833Z,28.00
2018-06-08T15:14:34.870Z,28.00
2018-06-08T15:17:10.394Z,28.00
2018-06-08T15:19:49.432Z,28.30
2018-06-08T15:22:29.925Z,28.30
2018-06-08T15:25:10.394Z,28.20
2018-06-08T15:27:51.237Z,28.30
2018-06-08T15:30:28.703Z,28.40
2018-06-08T15:35:50.832Z,28.10
2018-06-08T15:38:31.747Z,27.90
2018-06-08T15:41:13.684Z,27.80
2018-06-08T15:46:33.237Z,27.70
2018-06-08T15:49:10.379Z,27.60
2018-06-08T15:57:17.245Z,27.40
2018-06-08T15:59:59.557Z,27.40
2018-06-08T16:05:19.160Z,27.50
2018-06-08T16:07:54.393Z,27.40
2018-06-08T16:13:13.509Z,27.30
2018-06-08T16:15:46.738Z,26.80
2018-06-08T16:18:31.090Z,26.70
2018-06-08T16:26:19.638Z,26.70
2018-06-08T16:28:56.978Z,26.60
2018-06-08T16:34:16.862Z,26.30
2018-06-08T16:37:01.823Z,26.30
2018-06-08T16:39:38.695Z,26.20
2018-06-08T16:42:16.951Z,26.20
2018-06-08T16:47:39.468Z,25.80
2018-06-08T16:50:18.914Z,25.80
2018-06-08T16:52:57.880Z,25.90
2018-06-08T16:55:37.004Z,26.10
2018-06-08T16:58:16.502Z,26.10
2018-06-08T17:01:01.734Z,25.90
2018-06-08T17:03:43.357Z,25.70
2018-06-08T17:06:24.559Z,25.70
2018-06-08T17:11:57.915Z,25.60
2018-06-08T17:14:33.725Z,25.60
2018-06-08T17:17:18.823Z,25.10
2018-06-08T17:19:57.263Z,25.30
2018-06-08T17:22:37.753Z,24.80
2018-06-08T17:25:19.476Z,24.90
2018-06-08T17:28:09.335Z,24.70
2018-06-08T17:30:44.831Z,24.60
2018-06-08T17:33:19.930Z,24.60
2018-06-08T17:35:58.439Z,24.60
2018-06-08T17:38:37.938Z,24.80
2018-06-08T17:41:21.004Z,24.70
2018-06-08T17:44:00.635Z,24.50
2018-06-08T17:46:50.799Z,24.50
2018-06-08T17:49:38.717Z,24.20
2018-06-08T17:52:17.349Z,24.30
2018-06-08T17:54:58.920Z,24.30
2018-06-08T17:57:43.400Z,24.50
2018-06-08T18:00:19.856Z,24.50
2018-06-08T18:05:59.657Z,23.50
2018-06-08T18:08:44.112Z,22.70
2018-06-08T18:14:28.452Z,23.10
2018-06-08T18:20:09.163Z,22.80
2018-06-08T18:28:50.658Z,22.80
2018-06-08T18:31:34.190Z,22.50
2018-06-08T18:34:21.832Z,22.50
2018-06-08T18:37:03.308Z,22.90
2018-06-08T18:39:53.985Z,23.10
2018-06-08T18:45:23.814Z,22.70
2018-06-08T18:48:05.618Z,22.70
2018-06-08T18:50:53.575Z,22.60
2018-06-08T18:53:42.146Z,22.80
2018-06-08T18:56:24.944Z,22.70
2018-06-08T18:59:21.869Z,22.40
2018-06-08T19:02:14.756Z,22.00
2018-06-08T19:04:58.101Z,21.60
2018-06-08T19:07:47.566Z,21.80
2018-06-08T19:13:27.423Z,22.80
2018-06-08T19:16:18.417Z,22.40
2018-06-08T19:19:08.364Z,22.40
2018-06-08T19:24:45.609Z,22.20
2018-06-08T19:27:37.329Z,22.00
2018-06-08T19:30:19.561Z,21.90
2018-06-08T19:33:08.266Z,21.40
2018-06-08T19:35:58.968Z,21.30
2018-06-08T19:38:43.761Z,21.40
2018-06-08T19:41:29.692Z,21.20
2018-06-08T19:44:12.063Z,20.90
2018-06-08T19:46:57.932Z,21.20
2018-06-08T19:49:51.471Z,21.50
2018-06-08T19:52:32.886Z,21.40
2018-06-08T19:55:15.434Z,21.80
2018-06-08T19:57:56.311Z,21.90
2018-06-08T20:00:44.418Z,21.70
2018-06-08T20:03:24.262Z,21.70
2018-06-08T20:06:00.799Z,21.50
2018-06-08T20:08:42.228Z,21.50
2018-06-08T20:11:27.816Z,21.60
2018-06-08T20:14:13.604Z,21.30
2018-06-08T20:16:54.305Z,21.20
2018-06-08T20:19:38.517Z,21.10
2018-06-08T20:25:13.645Z,21.00
2018-06-08T20:27:55.146Z,21.20
2018-06-08T20:30:37.600Z,21.10
2018-06-08T20:33:30.333Z,21.00
2018-06-08T20:36:08.442Z,21.10
2018-06-08T20:41:40.748Z,21.30
2018-06-08T20:47:14.680Z,20.50
2018-06-08T20:50:01.931Z,20.40
2018-06-08T20:52:42.078Z,20.70
2018-06-08T20:55:25.545Z,20.90
2018-06-08T20:58:08.248Z,21.10
2018-06-08T21:00:49.244Z,21.00
2018-06-08T21:03:33.363Z,21.30
2018-06-08T21:14:42.562Z,20.40
2018-06-08T21:20:09.157Z,20.90
2018-06-08T21:22:58.851Z,20.90
2018-06-08T21:25:40.339Z,20.70
2018-06-08T21:28:25.697Z,20.70
2018-06-08T21:31:07.276Z,20.70
2018-06-08T21:33:52.883Z,20.80
2018-06-08T21:36:36.307Z,20.60
2018-06-08T21:39:23.881Z,20.40
2018-06-08T21:42:09.181Z,20.80
2018-06-08T21:44:58.882Z,20.80
2018-06-08T21:47:44.967Z,20.60
2018-06-08T21:50:23.696Z,19.90
2018-06-08T21:53:12.075Z,19.80
2018-06-08T21:55:58.114Z,19.60
2018-06-08T21:58:41.707Z,19.80
2018-06-08T22:01:28.591Z,19.80
2018-06-08T22:04:10.544Z,19.40
2018-06-08T22:06:52.935Z,19.30
2018-06-08T22:09:37.672Z,19.40
2018-06-08T22:12:21.585Z,19.80
2018-06-08T22:14:59.617Z,19.90
2018-06-08T22:17:45.528Z,19.90
2018-06-08T22:20:24.713Z,19.60
2018-06-08T22:23:12.088Z,19.80
2018-06-08T22:25:55.141Z,19.80
2018-06-08T22:28:39.301Z,20.10
2018-06-08T22:31:23.078Z,20.30
2018-06-08T22:34:02.257Z,20.30
2018-06-08T22:39:39.389Z,20.40
2018-06-08T22:42:23.902Z,20.50
2018-06-08T22:45:04.315Z,20.50
2018-06-08T22:47:52.100Z,20.30
2018-06-08T22:50:33.018Z,20.30
2018-06-08T22:53:16.870Z,20.60
2018-06-08T22:55:56.674Z,20.50
2018-06-08T22:58:41.132Z,20.50
2018-06-08T23:01:20.001Z,20.40
2018-06-08T23:04:07.354Z,20.50
2018-06-08T23:09:42.537Z,20.90
2018-06-08T23:12:26.229Z,20.60
2018-06-08T23:20:50.961Z,20.20
2018-06-08T23:23:44.570Z,20.20
2018-06-08T23:29:13.262Z,20.30
2018-06-08T23:32:06.611Z,20.10
2018-06-08T23:34:55.591Z,20.30
2018-06-08T23:40:32.212Z,20.20
2018-06-08T23:43:21.617Z,20.10
2018-06-08T23:46:02.244Z,20.30
2018-06-08T23:48:47.027Z,20.10
2018-06-08T23:51:27.870Z,19.90
2018-06-08T23:54:17.196Z,19.90
2018-06-08T23:57:04.994Z,19.50
2018-06-08T23:59:51.733Z,19.50
